Nearby METAR Reports

 

CYOW - Ottawa Intl, Ontario, Canada
Distance from station: NNW 27km
Updated: 09/26/2021 2:00am
Mostly cloudy
Mostly cloudy
 Wind from W
Wind: W 17 km/h
Temperature: 14°C
Dew Point: 11°C
Humidity: 82%
Barometer: 1010.8 hPa
Clouds: Mostly cloudy
Visibility: 24 km
Cloud details: Few Clouds 518 m
Partly cloudy 2438 m
Mostly cloudy 3048 m
2021/09/26 06:00 CYOW 260600Z 27009KT 15SM FEW017 SCT080 BKN100 14/11 A2985 RMK SF1AC3AC5 SF TR SLP110 DENSITY ALT 400FT
KMSS - Massena, New York, USA
Distance from station: ESE 54km
Updated: 09/26/2021 12:53am
NOT Current
Clear
Clear
 Wind from SW
Wind: SW 13 km/h
Temperature: 14°C
Dew Point: 12°C
Humidity: 88%
Barometer: 1011.2 hPa
Clouds: Clear
Visibility: 16 km
2021/09/26 04:53 KMSS 260453Z AUTO 22007KT 10SM CLR 14/12 A2986 RMK AO2 SLP110 T01440117 402220061
KOGS - Ogdensburg Intl, New York, USA
Distance from station: S 48km
Updated: 09/26/2021 2:15am
Overcast
Overcast
 Wind from varies
Wind: varies 9 km/h
Temperature: 15°C
Dew Point: 12°C
Humidity: 82%
Barometer: 1010.8 hPa
Clouds: Overcast
Visibility: 16 km
Cloud details: Partly cloudy 610 m
Mostly cloudy 2438 m
Overcast 2743 m
2021/09/26 06:15 KOGS 260615Z AUTO VRB05KT 10SM SCT020 BKN080 OVC090 15/12 A2985 RMK AO2
 
CXKE - Kemptville, Ontario, Canada
Distance from station: SW 15km
Updated: 09/26/2021 2:00am

 Wind from W
Wind: W 9 km/h
Temperature: 14°C
Dew Point: 10°C
Humidity: 77%
2021/09/26 06:00 CXKE 260600Z AUTO 28005KT 14/10 RMK AO1 SLP110 T01350095 52007